createdAt,value
2022-10-29T00:00:25.217Z,15.70
2022-10-29T00:01:25.236Z,15.73
2022-10-29T00:02:25.175Z,15.70
2022-10-29T00:03:25.276Z,15.73
2022-10-29T00:04:25.053Z,15.68
2022-10-29T00:05:25.024Z,15.76
2022-10-29T00:06:24.996Z,15.80
2022-10-29T00:07:24.942Z,15.71
2022-10-29T00:08:24.901Z,15.70
2022-10-29T00:09:24.871Z,15.66
2022-10-29T00:10:24.822Z,15.74
2022-10-29T00:11:24.802Z,15.70
2022-10-29T00:12:24.748Z,15.74
2022-10-29T00:13:24.710Z,15.70
2022-10-29T00:14:24.672Z,15.73
2022-10-29T00:15:24.632Z,15.68
2022-10-29T00:16:24.594Z,15.76
2022-10-29T00:17:24.583Z,15.80
2022-10-29T00:18:24.536Z,15.67
2022-10-29T00:19:24.480Z,15.76
2022-10-29T00:20:24.447Z,15.78
2022-10-29T00:21:24.407Z,15.74
2022-10-29T00:22:24.366Z,15.70
2022-10-29T00:23:24.331Z,15.73
2022-10-29T00:24:24.298Z,15.78
2022-10-29T00:25:24.251Z,15.78
2022-10-29T00:26:24.211Z,15.77
2022-10-29T00:27:24.176Z,15.81
2022-10-29T00:28:24.135Z,15.81
2022-10-29T00:29:24.101Z,15.86
2022-10-29T00:30:24.086Z,15.86
2022-10-29T00:31:24.073Z,15.78
2022-10-29T00:32:23.993Z,15.76
2022-10-29T00:33:23.945Z,15.86
2022-10-29T00:34:23.905Z,15.80
2022-10-29T00:35:23.882Z,15.80
2022-10-29T00:36:23.830Z,15.80
2022-10-29T00:37:23.804Z,15.84
2022-10-29T00:38:23.757Z,15.85
2022-10-29T00:39:23.717Z,15.96
2022-10-29T00:40:23.678Z,15.85
2022-10-29T00:41:23.666Z,15.93
2022-10-29T00:42:23.603Z,15.92
2022-10-29T00:43:23.566Z,15.89
2022-10-29T00:44:23.535Z,15.85
2022-10-29T00:45:23.489Z,15.89
2022-10-29T00:46:23.490Z,15.84
2022-10-29T00:47:23.423Z,15.85
2022-10-29T00:48:23.396Z,15.89
2022-10-29T00:49:23.337Z,15.86
2022-10-29T00:50:23.301Z,15.89
2022-10-29T00:51:23.257Z,15.96
2022-10-29T00:52:23.220Z,15.88
2022-10-29T00:53:23.183Z,15.86
2022-10-29T00:54:23.170Z,15.96
2022-10-29T00:55:23.113Z,15.81
2022-10-29T00:56:23.075Z,15.85
2022-10-29T00:57:23.032Z,15.86
2022-10-29T00:58:22.995Z,15.91
2022-10-29T00:59:22.954Z,15.92
2022-10-29T01:00:22.930Z,15.84
2022-10-29T01:01:22.995Z,15.80
2022-10-29T01:02:23.006Z,15.78
2022-10-29T01:03:22.804Z,15.81
2022-10-29T01:04:22.763Z,15.86
2022-10-29T01:05:22.729Z,15.84
2022-10-29T01:06:22.699Z,15.78
2022-10-29T01:07:22.649Z,15.81
2022-10-29T01:08:22.610Z,15.73
2022-10-29T01:09:22.572Z,15.71
2022-10-29T01:10:22.550Z,15.85
2022-10-29T01:11:22.495Z,15.80
2022-10-29T01:12:22.465Z,15.76
2022-10-29T01:13:22.424Z,15.70
2022-10-29T01:14:22.382Z,15.73
2022-10-29T01:15:22.345Z,15.73
2022-10-29T01:16:22.316Z,15.73
2022-10-29T01:17:22.268Z,15.74
2022-10-29T01:18:22.228Z,15.62
2022-10-29T01:19:22.324Z,15.70
2022-10-29T01:20:22.157Z,15.71
2022-10-29T01:21:22.114Z,15.66
2022-10-29T01:22:22.084Z,15.71
2022-10-29T01:23:22.036Z,15.60
2022-10-29T01:24:22.005Z,15.62
2022-10-29T01:25:21.972Z,15.60
2022-10-29T01:26:21.927Z,15.53
2022-10-29T01:27:21.887Z,15.55
2022-10-29T01:28:21.882Z,15.46
2022-10-29T01:29:21.821Z,15.55
2022-10-29T01:30:21.768Z,15.52
2022-10-29T01:31:21.731Z,15.52
2022-10-29T01:32:21.694Z,15.43
2022-10-29T01:33:21.657Z,15.48
2022-10-29T01:34:21.618Z,15.49
2022-10-29T01:35:21.593Z,15.49
2022-10-29T01:36:21.540Z,15.55
2022-10-29T01:37:21.500Z,15.38
2022-10-29T01:38:21.463Z,15.48
2022-10-29T01:39:21.433Z,15.46
2022-10-29T01:40:21.386Z,15.38
2022-10-29T01:41:21.362Z,15.34
2022-10-29T01:42:21.311Z,15.37
2022-10-29T01:43:21.286Z,15.35
2022-10-29T01:44:21.234Z,15.28
2022-10-29T01:45:21.196Z,15.31
2022-10-29T01:46:21.165Z,15.25
2022-10-29T01:47:21.132Z,15.30
2022-10-29T01:48:21.079Z,15.30
2022-10-29T01:49:21.039Z,15.31
2022-10-29T01:50:21.030Z,15.27
2022-10-29T01:51:20.967Z,15.20
2022-10-29T01:52:20.927Z,15.23
2022-10-29T01:53:20.901Z,15.23
2022-10-29T01:54:20.849Z,15.18
2022-10-29T01:55:20.815Z,15.19
2022-10-29T01:56:20.774Z,15.33
2022-10-29T01:57:20.732Z,15.25
2022-10-29T01:58:20.699Z,15.19
2022-10-29T01:59:35.334Z,15.22
2022-10-29T02:00:20.621Z,15.15
2022-10-29T02:01:20.645Z,15.07
2022-10-29T02:02:20.542Z,15.05
2022-10-29T02:03:20.506Z,15.09
2022-10-29T02:04:20.469Z,15.05
2022-10-29T02:05:20.435Z,15.05
2022-10-29T02:06:20.386Z,15.09
2022-10-29T02:07:20.350Z,15.03
2022-10-29T02:08:20.311Z,15.07
2022-10-29T02:09:20.270Z,15.09
2022-10-29T02:10:20.234Z,15.09
2022-10-29T02:11:20.208Z,15.09
2022-10-29T02:12:20.157Z,14.95
2022-10-29T02:13:20.172Z,15.07
2022-10-29T02:14:20.078Z,15.19
2022-10-29T02:15:20.037Z,15.05
2022-10-29T02:16:20.002Z,15.03
2022-10-29T02:17:19.976Z,15.03
2022-10-29T02:18:19.924Z,15.13
2022-10-29T02:19:19.888Z,15.03
2022-10-29T02:20:19.844Z,15.07
2022-10-29T02:21:19.809Z,15.12
2022-10-29T02:22:19.770Z,15.04
2022-10-29T02:23:19.743Z,15.03
2022-10-29T02:24:19.695Z,15.07
2022-10-29T02:25:19.709Z,15.13
2022-10-29T02:26:19.630Z,15.11
2022-10-29T02:27:19.576Z,15.04
2022-10-29T02:29:19.500Z,15.09
2022-10-29T02:30:19.462Z,14.90
2022-10-29T02:31:19.423Z,14.85
2022-10-29T02:32:19.390Z,14.91
2022-10-29T02:33:19.345Z,14.91
2022-10-29T02:34:19.321Z,14.90
2022-10-29T02:35:19.269Z,14.85
2022-10-29T02:36:19.232Z,14.93
2022-10-29T02:37:19.190Z,14.97
2022-10-29T02:38:19.154Z,14.94
2022-10-29T02:39:19.113Z,14.75
2022-10-29T02:40:19.084Z,14.78
2022-10-29T02:41:19.036Z,14.71
2022-10-29T02:42:18.996Z,14.74
2022-10-29T02:44:18.922Z,14.83
2022-10-29T02:45:18.882Z,14.72
2022-10-29T02:46:18.857Z,14.80
2022-10-29T02:47:18.810Z,14.66
2022-10-29T02:48:18.770Z,14.64
2022-10-29T02:49:18.727Z,14.67
2022-10-29T02:50:18.688Z,14.63
2022-10-29T02:51:18.648Z,14.61
2022-10-29T02:52:18.628Z,14.63
2022-10-29T02:53:18.573Z,14.66
2022-10-29T02:54:18.533Z,14.56
2022-10-29T02:55:18.501Z,14.49
2022-10-29T02:56:18.455Z,14.49
2022-10-29T02:57:18.415Z,14.52
2022-10-29T02:58:18.443Z,14.59
2022-10-29T02:59:18.338Z,14.60
2022-10-29T03:00:18.302Z,14.57
2022-10-29T03:01:18.292Z,14.52
2022-10-29T03:02:18.435Z,14.53
2022-10-29T03:03:18.184Z,14.46
2022-10-29T03:04:25.206Z,14.44
2022-10-29T03:05:18.108Z,14.52
2022-10-29T03:06:18.067Z,14.54
2022-10-29T03:07:18.026Z,14.48
2022-10-29T03:08:17.989Z,14.45
2022-10-29T03:09:17.951Z,14.36
2022-10-29T03:10:17.924Z,14.46
2022-10-29T03:11:17.871Z,14.41
2022-10-29T03:12:17.836Z,14.42
2022-10-29T03:13:17.795Z,14.49
2022-10-29T03:14:17.767Z,14.39
2022-10-29T03:15:17.714Z,14.46
2022-10-29T03:16:17.689Z,14.46
2022-10-29T03:17:17.647Z,14.52
2022-10-29T03:18:17.600Z,14.35
2022-10-29T03:19:17.559Z,14.31
2022-10-29T03:20:17.528Z,14.34
2022-10-29T03:21:17.482Z,14.54
2022-10-29T03:22:17.445Z,14.45
2022-10-29T03:23:17.432Z,14.52
2022-10-29T03:24:17.365Z,14.54
2022-10-29T03:25:17.325Z,14.52
2022-10-29T03:26:17.289Z,14.48
2022-10-29T03:27:17.249Z,14.59
2022-10-29T03:28:17.211Z,14.63
2022-10-29T03:29:17.179Z,14.66
2022-10-29T03:30:17.131Z,14.59
2022-10-29T03:31:17.091Z,14.69
2022-10-29T03:32:17.052Z,14.71
2022-10-29T03:33:17.018Z,14.66
2022-10-29T03:34:16.990Z,14.85
2022-10-29T03:35:16.936Z,14.78
2022-10-29T03:36:16.985Z,14.85
2022-10-29T03:37:16.858Z,14.91
2022-10-29T03:38:16.818Z,14.90
2022-10-29T03:39:16.780Z,14.97
2022-10-29T03:40:16.757Z,15.05
2022-10-29T03:41:16.704Z,15.12
2022-10-29T03:42:16.663Z,15.15
2022-10-29T03:43:16.624Z,15.30
2022-10-29T03:44:16.590Z,15.43
2022-10-29T03:45:16.546Z,15.41
2022-10-29T03:46:16.519Z,15.59
2022-10-29T03:47:16.471Z,15.59
2022-10-29T03:48:16.431Z,15.60
2022-10-29T03:49:16.404Z,15.84
2022-10-29T03:50:16.354Z,15.74
2022-10-29T03:51:16.315Z,15.91
2022-10-29T03:52:16.276Z,15.96
2022-10-29T03:53:16.237Z,15.99
2022-10-29T03:54:16.200Z,15.99
2022-10-29T03:55:16.174Z,16.16
2022-10-29T03:56:16.120Z,16.13
2022-10-29T03:57:16.083Z,16.11
2022-10-29T03:58:16.042Z,16.14
2022-10-29T03:59:16.006Z,16.26
2022-10-29T04:00:15.969Z,16.25
2022-10-29T04:01:15.973Z,16.32
2022-10-29T04:02:16.048Z,16.30
2022-10-29T04:03:15.849Z,16.27
2022-10-29T04:04:15.814Z,16.25
2022-10-29T04:05:15.775Z,16.33
2022-10-29T04:06:15.735Z,16.30
2022-10-29T04:07:15.711Z,16.25
2022-10-29T04:08:15.658Z,16.26
2022-10-29T04:09:15.622Z,16.33
2022-10-29T04:10:15.580Z,16.26
2022-10-29T04:11:15.543Z,16.25
2022-10-29T04:12:15.511Z,16.32
2022-10-29T04:13:15.476Z,16.26
2022-10-29T04:14:15.441Z,16.26
2022-10-29T04:15:15.387Z,16.27
2022-10-29T04:16:15.348Z,16.30
2022-10-29T04:17:15.311Z,16.27
2022-10-29T04:18:15.270Z,16.30
2022-10-29T04:19:15.251Z,16.42
2022-10-29T04:20:31.831Z,16.48
2022-10-29T04:27:07.885Z,16.52
2022-10-29T04:29:14.860Z,16.54
2022-10-29T04:30:14.844Z,16.57
2022-10-29T04:31:14.771Z,16.59
2022-10-29T04:32:14.744Z,16.59
2022-10-29T04:33:14.698Z,16.69
2022-10-29T04:34:14.663Z,16.63
2022-10-29T04:35:14.617Z,16.75
2022-10-29T04:36:14.581Z,16.92
2022-10-29T04:37:14.556Z,16.91
2022-10-29T04:38:14.506Z,16.73
2022-10-29T04:39:17.183Z,16.88
2022-10-29T04:40:14.442Z,16.87
2022-10-29T04:41:14.385Z,16.77
2022-10-29T04:42:14.350Z,16.82
2022-10-29T04:43:14.325Z,16.80
2022-10-29T04:44:14.287Z,16.91
2022-10-29T04:45:14.235Z,16.87
2022-10-29T04:46:14.196Z,16.78
2022-10-29T04:47:14.157Z,16.80
2022-10-29T04:48:14.117Z,16.87
2022-10-29T04:49:14.142Z,16.85
2022-10-29T04:50:14.052Z,16.87
2022-10-29T04:51:14.008Z,16.81
2022-10-29T04:52:13.968Z,16.87
2022-10-29T04:53:13.925Z,16.92
2022-10-29T04:54:13.886Z,16.95
2022-10-29T04:55:13.849Z,16.90
2022-10-29T04:56:13.820Z,16.90
2022-10-29T04:57:13.773Z,16.87
2022-10-29T04:58:13.732Z,16.85
2022-10-29T04:59:13.699Z,16.90
2022-10-29T05:00:17.843Z,16.82
2022-10-29T05:01:13.905Z,16.95
2022-10-29T05:02:13.594Z,17.02
2022-10-29T05:03:13.566Z,17.02
2022-10-29T05:04:13.506Z,17.09
2022-10-29T05:05:13.472Z,17.05
2022-10-29T05:06:13.428Z,17.06
2022-10-29T05:07:13.392Z,17.00
2022-10-29T05:08:13.348Z,17.10
2022-10-29T05:09:13.323Z,16.92
2022-10-29T05:10:13.274Z,16.99
2022-10-29T05:11:13.235Z,16.98
2022-10-29T05:12:13.198Z,16.98
2022-10-29T05:13:13.166Z,16.95
2022-10-29T05:14:13.127Z,16.96
2022-10-29T05:15:13.091Z,17.02
2022-10-29T05:16:13.041Z,16.99
2022-10-29T05:17:13.005Z,16.88
2022-10-29T05:18:12.966Z,17.02
2022-10-29T05:19:12.930Z,16.90
2022-10-29T05:20:12.890Z,16.87
2022-10-29T05:21:12.863Z,16.82
2022-10-29T05:22:12.820Z,16.84
2022-10-29T05:23:12.775Z,16.75
2022-10-29T05:24:12.735Z,16.80
2022-10-29T05:25:12.699Z,16.84
2022-10-29T05:26:12.671Z,16.84
2022-10-29T05:27:12.623Z,16.88
2022-10-29T05:28:12.587Z,16.78
2022-10-29T05:29:12.546Z,16.80
2022-10-29T05:30:12.506Z,17.03
2022-10-29T05:31:12.476Z,16.88
2022-10-29T05:32:12.443Z,16.91
2022-10-29T05:33:12.395Z,16.95
2022-10-29T05:34:12.354Z,17.02
2022-10-29T05:35:12.316Z,16.96
2022-10-29T05:36:12.277Z,16.96
2022-10-29T05:37:12.243Z,17.03
2022-10-29T05:38:12.209Z,16.92
2022-10-29T05:39:12.166Z,17.02
2022-10-29T05:40:12.123Z,17.06
2022-10-29T05:41:12.087Z,17.00
2022-10-29T05:42:12.051Z,17.02
2022-10-29T05:43:12.014Z,17.03
2022-10-29T05:44:11.981Z,17.03
2022-10-29T05:45:11.935Z,17.00
2022-10-29T05:46:11.898Z,17.05
2022-10-29T05:47:11.859Z,17.03
2022-10-29T05:49:11.783Z,16.96
2022-10-29T05:50:11.755Z,17.02
2022-10-29T05:51:11.712Z,16.96
2022-10-29T05:52:11.666Z,16.91
2022-10-29T05:53:11.630Z,16.98
2022-10-29T05:54:11.589Z,16.96
2022-10-29T05:55:11.551Z,16.82
2022-10-29T05:56:11.542Z,16.88
2022-10-29T05:57:11.490Z,16.87
2022-10-29T05:58:11.437Z,16.87
2022-10-29T05:59:11.400Z,16.96
2022-10-29T06:00:11.359Z,16.85
2022-10-29T06:01:11.400Z,16.98
2022-10-29T06:02:11.541Z,16.96
2022-10-29T06:03:11.293Z,16.88
2022-10-29T06:04:11.210Z,16.98
2022-10-29T06:05:11.172Z,16.87
2022-10-29T06:06:11.312Z,16.91
2022-10-29T06:07:11.116Z,16.91
2022-10-29T06:08:11.077Z,16.88
2022-10-29T06:09:11.019Z,16.82
2022-10-29T06:10:10.981Z,16.77
2022-10-29T06:11:10.944Z,16.90
2022-10-29T06:12:10.905Z,16.73
2022-10-29T06:13:10.885Z,16.84
2022-10-29T06:14:10.824Z,16.81
2022-10-29T06:15:10.789Z,16.85
2022-10-29T06:16:10.747Z,16.87
2022-10-29T06:17:10.714Z,16.81
2022-10-29T06:18:10.689Z,16.77
2022-10-29T06:19:10.647Z,16.78
2022-10-29T06:20:10.597Z,16.72
2022-10-29T06:21:10.559Z,16.70
2022-10-29T06:22:10.520Z,16.77
2022-10-29T06:23:10.487Z,16.77
2022-10-29T06:24:10.449Z,16.80
2022-10-29T06:25:10.415Z,16.82
2022-10-29T06:26:10.365Z,16.80
2022-10-29T06:27:10.328Z,16.84
2022-10-29T06:28:10.290Z,16.75
2022-10-29T06:29:10.256Z,16.73
2022-10-29T06:30:10.215Z,16.73
2022-10-29T06:31:10.189Z,16.78
2022-10-29T06:32:10.138Z,16.73
2022-10-29T06:33:10.099Z,16.73
2022-10-29T06:34:10.062Z,16.81
2022-10-29T06:35:10.022Z,16.84
2022-10-29T06:36:09.984Z,16.73
2022-10-29T06:37:09.958Z,16.80
2022-10-29T06:38:12.451Z,16.81
2022-10-29T06:39:09.869Z,16.81
2022-10-29T06:40:09.831Z,16.85
2022-10-29T06:41:09.813Z,16.78
2022-10-29T06:42:09.768Z,16.73
2022-10-29T06:43:09.735Z,16.84
2022-10-29T06:44:09.682Z,16.88
2022-10-29T06:45:09.644Z,16.84
2022-10-29T06:46:09.602Z,16.99
2022-10-29T06:47:09.574Z,16.98
2022-10-29T06:48:09.528Z,17.05
2022-10-29T06:49:09.488Z,17.05
2022-10-29T06:50:09.447Z,17.12
2022-10-29T06:51:09.457Z,17.09
2022-10-29T06:52:09.371Z,17.09
2022-10-29T06:53:09.350Z,17.02
2022-10-29T06:54:09.294Z,17.17
2022-10-29T06:55:09.257Z,17.03
2022-10-29T06:56:09.226Z,17.17
2022-10-29T06:57:09.182Z,17.18
2022-10-29T06:58:09.146Z,17.17
2022-10-29T06:59:09.119Z,17.12
2022-10-29T07:00:09.074Z,17.17
2022-10-29T07:01:09.030Z,17.17
2022-10-29T07:02:09.030Z,17.14
2022-10-29T07:03:08.955Z,17.22
2022-10-29T07:04:08.914Z,17.20
2022-10-29T07:05:08.891Z,17.35
2022-10-29T07:06:08.836Z,17.28
2022-10-29T07:07:08.801Z,17.32
2022-10-29T07:08:08.762Z,17.45
2022-10-29T07:09:08.725Z,17.40
2022-10-29T07:10:08.718Z,17.45
2022-10-29T07:11:08.648Z,17.60
2022-10-29T07:12:08.610Z,17.57
2022-10-29T07:13:08.571Z,17.79
2022-10-29T07:14:08.535Z,17.80
2022-10-29T07:15:08.505Z,17.80
2022-10-29T07:16:08.473Z,17.96
2022-10-29T07:17:08.423Z,17.94
2022-10-29T07:18:08.400Z,18.02
2022-10-29T07:19:08.346Z,18.20
2022-10-29T07:20:08.309Z,18.20
2022-10-29T07:21:08.271Z,18.25
2022-10-29T07:22:08.231Z,18.46
2022-10-29T07:23:08.196Z,18.49
2022-10-29T07:24:08.173Z,18.65
2022-10-29T07:25:08.122Z,18.71
2022-10-29T07:26:08.083Z,18.74
2022-10-29T07:27:08.087Z,18.94
2022-10-29T07:28:08.082Z,19.06
2022-10-29T07:29:07.971Z,19.12
2022-10-29T07:30:07.946Z,19.15
2022-10-29T07:31:07.903Z,19.20
2022-10-29T07:32:07.861Z,19.34
2022-10-29T07:33:07.825Z,19.43
2022-10-29T07:34:07.787Z,19.43
2022-10-29T07:35:07.751Z,19.46
2022-10-29T07:36:07.724Z,19.67
2022-10-29T07:37:07.678Z,19.90
2022-10-29T07:38:10.796Z,20.05
2022-10-29T07:39:07.607Z,20.23
2022-10-29T07:40:07.572Z,20.26
2022-10-29T07:41:07.542Z,20.08
2022-10-29T07:42:07.494Z,20.16
2022-10-29T07:43:07.464Z,20.02
2022-10-29T07:44:07.424Z,20.16
2022-10-29T07:45:07.387Z,20.33
2022-10-29T07:46:07.363Z,20.33
2022-10-29T07:47:07.326Z,19.98
2022-10-29T07:48:07.277Z,19.92
2022-10-29T07:49:07.244Z,20.16
2022-10-29T07:50:07.205Z,20.16
2022-10-29T07:51:07.193Z,20.17
2022-10-29T07:52:07.136Z,20.37
2022-10-29T07:53:07.132Z,20.41
2022-10-29T07:54:08.730Z,20.26
2022-10-29T07:55:07.031Z,20.25
2022-10-29T07:56:06.995Z,20.16
2022-10-29T07:57:06.979Z,20.05
2022-10-29T07:58:06.924Z,19.92
2022-10-29T07:59:06.908Z,19.75
2022-10-29T08:00:06.876Z,19.79
2022-10-29T08:01:06.892Z,19.70
2022-10-29T08:02:06.828Z,19.68
2022-10-29T08:03:06.754Z,19.62
2022-10-29T08:04:06.741Z,19.52
2022-10-29T08:05:06.682Z,19.27
2022-10-29T08:06:06.638Z,19.23
2022-10-29T08:07:06.603Z,19.24
2022-10-29T08:08:06.564Z,19.23
2022-10-29T08:09:06.533Z,19.12
2022-10-29T08:10:06.499Z,19.07
2022-10-29T08:11:06.472Z,19.07
2022-10-29T08:12:06.424Z,18.75
2022-10-29T08:13:06.385Z,18.79
2022-10-29T08:14:06.352Z,18.76
2022-10-29T08:15:06.316Z,18.76
2022-10-29T08:16:06.300Z,18.82
2022-10-29T08:17:06.253Z,18.86
2022-10-29T08:18:06.206Z,18.86
2022-10-29T08:19:06.168Z,18.94
2022-10-29T08:20:06.135Z,19.30
2022-10-29T08:21:06.096Z,19.47
2022-10-29T08:22:06.057Z,19.87
2022-10-29T08:23:06.034Z,19.97
2022-10-29T08:24:05.989Z,20.07
2022-10-29T08:25:05.952Z,20.12
2022-10-29T08:26:05.936Z,20.15
2022-10-29T08:27:05.882Z,19.94
2022-10-29T08:28:05.850Z,19.92
2022-10-29T08:29:05.809Z,19.57
2022-10-29T08:30:05.773Z,19.46
2022-10-29T08:31:05.734Z,19.35
2022-10-29T08:32:05.709Z,19.24
2022-10-29T08:33:05.663Z,19.28
2022-10-29T08:34:10.784Z,19.40
2022-10-29T08:35:05.592Z,19.39
2022-10-29T08:36:05.554Z,19.47
2022-10-29T08:37:05.521Z,19.67
2022-10-29T08:38:05.497Z,19.71
2022-10-29T08:39:05.447Z,20.01
2022-10-29T08:40:05.410Z,20.12
2022-10-29T08:41:05.376Z,20.35
2022-10-29T08:42:05.342Z,20.57
2022-10-29T08:43:05.304Z,20.53
2022-10-29T08:44:05.281Z,20.42
2022-10-29T08:45:05.241Z,20.17
2022-10-29T08:46:05.196Z,20.23
2022-10-29T08:47:07.749Z,20.44
2022-10-29T08:48:05.128Z,20.60
2022-10-29T08:49:05.101Z,20.66
2022-10-29T08:50:05.056Z,21.01
2022-10-29T08:51:05.017Z,21.30
2022-10-29T08:52:04.980Z,21.63
2022-10-29T08:53:22.420Z,21.68
2022-10-29T08:54:25.452Z,21.74
2022-10-29T08:55:04.894Z,21.70
2022-10-29T08:56:04.841Z,21.24
2022-10-29T08:57:04.807Z,21.27
2022-10-29T08:58:04.771Z,21.36
2022-10-29T08:59:04.737Z,21.52
2022-10-29T09:00:04.774Z,22.01
2022-10-29T09:01:04.722Z,22.12
2022-10-29T09:02:04.706Z,22.06
2022-10-29T09:03:04.607Z,22.57
2022-10-29T09:04:04.563Z,22.70
2022-10-29T09:05:12.477Z,23.12
2022-10-29T09:06:04.494Z,23.53
2022-10-29T09:07:04.476Z,23.69
2022-10-29T09:08:04.429Z,23.60
2022-10-29T09:09:04.395Z,23.19
2022-10-29T09:10:04.360Z,22.66
2022-10-29T09:11:04.324Z,22.24
2022-10-29T09:12:04.292Z,21.99
2022-10-29T09:13:04.270Z,22.23
2022-10-29T09:14:04.227Z,22.70
2022-10-29T09:15:04.191Z,22.93
2022-10-29T09:16:04.162Z,22.89
2022-10-29T09:17:04.128Z,22.82
2022-10-29T09:18:04.105Z,22.69
2022-10-29T09:19:04.057Z,22.60
2022-10-29T09:20:04.032Z,22.61
2022-10-29T09:21:03.992Z,22.66
2022-10-29T09:22:03.962Z,22.48
2022-10-29T09:23:03.939Z,22.59
2022-10-29T09:24:03.890Z,22.76
2022-10-29T09:25:03.859Z,22.84
2022-10-29T09:26:03.833Z,22.89
2022-10-29T09:27:08.108Z,22.91
2022-10-29T09:28:03.758Z,23.21
2022-10-29T09:29:03.735Z,23.16
2022-10-29T09:30:03.695Z,23.32
2022-10-29T09:31:03.658Z,23.49
2022-10-29T09:32:03.624Z,23.84
2022-10-29T09:33:03.591Z,23.79
2022-10-29T09:34:03.556Z,24.14
2022-10-29T09:35:03.535Z,24.36
2022-10-29T09:36:03.490Z,24.06
2022-10-29T09:37:03.462Z,23.45
2022-10-29T09:38:03.427Z,23.31
2022-10-29T09:39:03.387Z,23.04
2022-10-29T09:40:03.369Z,22.88
2022-10-29T09:41:03.324Z,22.63
2022-10-29T09:42:03.307Z,22.46
2022-10-29T09:43:03.258Z,22.42
2022-10-29T09:44:03.225Z,22.36
2022-10-29T09:45:03.206Z,22.33
2022-10-29T09:46:03.154Z,22.30
2022-10-29T09:47:08.619Z,22.30
2022-10-29T09:48:03.105Z,22.69
2022-10-29T09:49:03.119Z,22.66
2022-10-29T09:50:07.175Z,22.39
2022-10-29T09:51:02.989Z,22.02
2022-10-29T09:52:02.952Z,22.04
2022-10-29T09:53:02.921Z,22.05
2022-10-29T09:54:02.897Z,22.01
2022-10-29T09:55:02.854Z,21.82
2022-10-29T09:56:02.828Z,22.04
2022-10-29T09:57:02.782Z,22.14
2022-10-29T09:58:02.756Z,22.39
2022-10-29T09:59:02.713Z,22.46
2022-10-29T10:00:02.699Z,22.56
2022-10-29T10:01:02.650Z,22.49
2022-10-29T10:02:02.798Z,22.35
2022-10-29T10:03:02.887Z,22.41
2022-10-29T10:04:02.631Z,22.33
2022-10-29T10:05:02.508Z,22.23
2022-10-29T10:06:02.499Z,22.01
2022-10-29T10:07:02.440Z,22.01
2022-10-29T10:08:02.405Z,21.96
2022-10-29T10:09:02.371Z,21.91
2022-10-29T10:10:02.336Z,21.98
2022-10-29T10:11:02.300Z,21.94
2022-10-29T10:12:02.299Z,21.85
2022-10-29T10:13:02.232Z,21.82
2022-10-29T10:14:02.197Z,21.67
2022-10-29T10:15:02.161Z,21.64
2022-10-29T10:16:02.128Z,21.49
2022-10-29T10:17:02.095Z,21.64
2022-10-29T10:18:02.075Z,21.56
2022-10-29T10:19:02.028Z,21.70
2022-10-29T10:20:01.988Z,21.68
2022-10-29T10:21:01.971Z,21.66
2022-10-29T10:22:01.928Z,21.67
2022-10-29T10:23:01.883Z,21.70
2022-10-29T10:24:01.863Z,21.68
2022-10-29T10:25:01.822Z,21.70
2022-10-29T10:26:04.022Z,21.85
2022-10-29T10:27:01.763Z,21.91
2022-10-29T10:28:01.709Z,22.04
2022-10-29T10:29:01.674Z,21.81
2022-10-29T10:30:01.649Z,21.70
2022-10-29T10:31:01.602Z,21.63
2022-10-29T10:32:01.569Z,21.59
2022-10-29T10:33:01.542Z,21.58
2022-10-29T10:34:01.500Z,21.49
2022-10-29T10:35:01.463Z,21.46
2022-10-29T10:36:01.439Z,21.42
2022-10-29T10:37:01.391Z,21.51
2022-10-29T10:38:01.359Z,21.31
2022-10-29T10:39:01.324Z,21.36
2022-10-29T10:40:01.295Z,21.34
2022-10-29T10:41:01.257Z,21.19
2022-10-29T10:42:01.232Z,21.38
2022-10-29T10:43:04.225Z,21.27
2022-10-29T10:44:01.149Z,21.46
2022-10-29T10:45:01.124Z,21.45
2022-10-29T10:46:01.079Z,21.48
2022-10-29T10:47:01.047Z,21.56
2022-10-29T10:48:01.460Z,21.71
2022-10-29T10:49:00.971Z,21.71
2022-10-29T10:50:00.942Z,21.56
2022-10-29T10:51:00.918Z,21.64
2022-10-29T10:52:00.886Z,21.55
2022-10-29T10:53:00.831Z,21.64
2022-10-29T10:54:00.862Z,21.68
2022-10-29T10:55:00.760Z,21.70
2022-10-29T10:56:00.724Z,21.89
2022-10-29T10:57:00.691Z,22.01
2022-10-29T10:58:00.669Z,22.21
2022-10-29T10:59:00.623Z,22.46
2022-10-29T11:00:00.584Z,22.57
2022-10-29T11:01:00.596Z,22.72
2022-10-29T11:02:00.668Z,22.89
2022-10-29T11:03:00.669Z,23.19
2022-10-29T11:04:00.446Z,23.19
2022-10-29T11:05:03.520Z,23.25
2022-10-29T11:06:00.375Z,23.29
2022-10-29T11:07:00.341Z,23.23
2022-10-29T11:08:00.520Z,23.23
2022-10-29T11:09:00.273Z,23.38
2022-10-29T11:10:00.252Z,23.47
2022-10-29T11:11:00.201Z,23.69
2022-10-29T11:12:00.170Z,23.79
2022-10-29T11:13:00.135Z,23.93
2022-10-29T11:14:00.127Z,23.86
2022-10-29T11:15:00.079Z,23.71
2022-10-29T11:16:00.036Z,23.74
2022-10-29T11:16:59.998Z,23.67
2022-10-29T11:18:00.427Z,23.72
2022-10-29T11:18:59.935Z,23.72
2022-10-29T11:19:59.917Z,23.84
2022-10-29T11:20:59.867Z,23.63
2022-10-29T11:21:59.833Z,23.45
2022-10-29T11:22:59.956Z,23.29
2022-10-29T11:23:59.767Z,23.32
2022-10-29T11:24:59.736Z,23.50
2022-10-29T11:25:59.711Z,23.49
2022-10-29T11:26:59.662Z,23.11
2022-10-29T11:27:59.633Z,23.19
2022-10-29T11:28:59.622Z,23.41
2022-10-29T11:29:59.567Z,23.57
2022-10-29T11:30:59.536Z,23.41
2022-10-29T11:31:59.497Z,23.39
2022-10-29T11:33:00.034Z,23.57
2022-10-29T11:33:59.430Z,23.62
2022-10-29T11:34:59.396Z,23.63
2022-10-29T11:36:01.596Z,23.64
2022-10-29T11:36:59.341Z,23.35
2022-10-29T11:37:59.651Z,23.31
2022-10-29T11:38:59.260Z,23.31
2022-10-29T11:39:59.233Z,23.25
2022-10-29T11:40:59.193Z,23.34
2022-10-29T11:41:59.162Z,23.39
2022-10-29T11:42:59.148Z,23.45
2022-10-29T11:43:59.095Z,23.41
2022-10-29T11:44:59.063Z,23.42
2022-10-29T11:45:59.029Z,23.59
2022-10-29T11:46:58.993Z,23.69
2022-10-29T11:47:59.294Z,23.86
2022-10-29T11:48:58.926Z,23.84
2022-10-29T11:49:58.893Z,23.94
2022-10-29T11:50:58.873Z,23.90
2022-10-29T11:51:58.829Z,23.97
2022-10-29T11:52:59.136Z,23.97
2022-10-29T11:53:58.765Z,24.05
2022-10-29T11:54:58.726Z,24.04
2022-10-29T11:55:58.693Z,24.06
2022-10-29T11:56:58.676Z,24.08
2022-10-29T11:57:58.626Z,23.72
2022-10-29T11:58:58.593Z,23.74
2022-10-29T11:59:58.560Z,23.71
2022-10-29T12:00:58.527Z,23.67
2022-10-29T12:01:58.627Z,23.77
2022-10-29T12:02:58.811Z,23.68
2022-10-29T12:03:58.508Z,23.77
2022-10-29T12:04:58.394Z,23.78
2022-10-29T12:05:58.361Z,23.75
2022-10-29T12:06:58.341Z,23.81
2022-10-29T12:07:58.636Z,23.79
2022-10-29T12:08:58.263Z,23.72
2022-10-29T12:09:58.229Z,23.69
2022-10-29T12:10:58.194Z,23.54
2022-10-29T12:11:58.162Z,23.38
2022-10-29T12:12:58.138Z,23.25
2022-10-29T12:13:58.095Z,23.11
2022-10-29T12:14:58.063Z,23.09
2022-10-29T12:15:58.029Z,22.94
2022-10-29T12:16:58.000Z,22.96
2022-10-29T12:17:58.459Z,22.91
2022-10-29T12:18:57.927Z,22.94
2022-10-29T12:19:57.964Z,22.81
2022-10-29T12:20:57.863Z,22.75
2022-10-29T12:21:57.842Z,22.57
2022-10-29T12:23:02.531Z,22.75
2022-10-29T12:23:57.774Z,22.76
2022-10-29T12:24:57.726Z,22.79
2022-10-29T12:25:57.691Z,22.79
2022-10-29T12:26:57.658Z,22.79
2022-10-29T12:27:57.626Z,22.86
2022-10-29T12:28:57.600Z,22.85
2022-10-29T12:29:57.557Z,22.63
2022-10-29T12:30:57.521Z,22.59
2022-10-29T12:31:57.488Z,22.54
2022-10-29T12:32:57.709Z,22.66
2022-10-29T12:33:57.430Z,22.69
2022-10-29T12:34:57.385Z,22.66
2022-10-29T12:35:57.403Z,22.67
2022-10-29T12:36:57.870Z,22.75
2022-10-29T12:37:57.702Z,22.74
2022-10-29T12:38:57.249Z,22.86
2022-10-29T12:39:57.222Z,22.78
2022-10-29T12:40:57.176Z,22.79
2022-10-29T12:41:57.146Z,22.88
2022-10-29T12:42:57.106Z,22.89
2022-10-29T12:43:57.076Z,22.91
2022-10-29T12:44:57.037Z,23.04
2022-10-29T12:46:19.020Z,23.07
2022-10-29T12:46:56.973Z,22.89
2022-10-29T12:47:57.307Z,22.97
2022-10-29T12:48:56.909Z,22.93
2022-10-29T12:49:56.868Z,22.94
2022-10-29T12:50:56.831Z,22.86
2022-10-29T12:52:56.998Z,22.84
2022-10-29T12:53:56.729Z,22.88
2022-10-29T12:54:56.693Z,22.85
2022-10-29T12:55:56.662Z,22.86
2022-10-29T12:56:56.625Z,22.91
2022-10-29T12:57:56.603Z,22.82
2022-10-29T12:58:56.555Z,22.88
2022-10-29T12:59:56.521Z,22.81
2022-10-29T13:00:56.529Z,22.85
2022-10-29T13:02:11.090Z,22.86
2022-10-29T13:02:56.815Z,22.93